sensor_id;sensor_type;location;lat;lon;timestamp;temperature;humidity
16263;DHT22;8239;48.594;8.598;2023-07-31T00:01:13;12.40;99.90
16263;DHT22;8239;48.594;8.598;2023-07-31T00:03:40;12.40;99.90
16263;DHT22;8239;48.594;8.598;2023-07-31T00:06:07;12.40;99.90
16263;DHT22;8239;48.594;8.598;2023-07-31T00:08:34;12.30;99.90
16263;DHT22;8239;48.594;8.598;2023-07-31T00:11:01;12.30;99.90
16263;DHT22;8239;48.594;8.598;2023-07-31T00:13:28;12.20;99.90
16263;DHT22;8239;48.594;8.598;2023-07-31T00:15:55;12.10;99.90
16263;DHT22;8239;48.594;8.598;2023-07-31T00:18:23;12.00;99.90
16263;DHT22;8239;48.594;8.598;2023-07-31T00:20:50;11.90;99.90
16263;DHT22;8239;48.594;8.598;2023-07-31T00:23:17;11.80;99.90
16263;DHT22;8239;48.594;8.598;2023-07-31T00:25:44;11.80;99.90
16263;DHT22;8239;48.594;8.598;2023-07-31T00:28:11;11.70;99.90
16263;DHT22;8239;48.594;8.598;2023-07-31T00:30:38;11.60;99.90
16263;DHT22;8239;48.594;8.598;2023-07-31T00:33:06;11.50;99.90
16263;DHT22;8239;48.594;8.598;2023-07-31T00:35:34;11.40;99.90
16263;DHT22;8239;48.594;8.598;2023-07-31T00:38:01;11.30;99.90
16263;DHT22;8239;48.594;8.598;2023-07-31T00:40:28;11.20;99.90
16263;DHT22;8239;48.594;8.598;2023-07-31T00:42:55;11.10;99.90
16263;DHT22;8239;48.594;8.598;2023-07-31T00:45:23;11.10;99.90
16263;DHT22;8239;48.594;8.598;2023-07-31T00:47:52;11.00;99.90
16263;DHT22;8239;48.594;8.598;2023-07-31T00:50:19;11.00;99.90
16263;DHT22;8239;48.594;8.598;2023-07-31T00:52:48;11.00;99.90
16263;DHT22;8239;48.594;8.598;2023-07-31T00:55:15;10.90;99.90
16263;DHT22;8239;48.594;8.598;2023-07-31T00:57:42;10.90;99.90
16263;DHT22;8239;48.594;8.598;2023-07-31T01:00:10;10.90;99.90
16263;DHT22;8239;48.594;8.598;2023-07-31T01:02:37;10.90;99.90
16263;DHT22;8239;48.594;8.598;2023-07-31T01:05:05;10.80;99.90
16263;DHT22;8239;48.594;8.598;2023-07-31T01:07:44;10.80;99.90
16263;DHT22;8239;48.594;8.598;2023-07-31T01:10:17;10.80;99.90
16263;DHT22;8239;48.594;8.598;2023-07-31T01:12:48;10.80;99.90
16263;DHT22;8239;48.594;8.598;2023-07-31T01:15:15;10.70;99.90
16263;DHT22;8239;48.594;8.598;2023-07-31T01:17:43;10.70;99.90
16263;DHT22;8239;48.594;8.598;2023-07-31T01:20:12;10.70;99.90
16263;DHT22;8239;48.594;8.598;2023-07-31T01:23:00;10.70;99.90
16263;DHT22;8239;48.594;8.598;2023-07-31T01:26:02;10.60;99.90
16263;DHT22;8239;48.594;8.598;2023-07-31T01:28:36;10.60;99.90
16263;DHT22;8239;48.594;8.598;2023-07-31T01:31:07;10.60;99.90
16263;DHT22;8239;48.594;8.598;2023-07-31T01:33:36;10.60;99.90
16263;DHT22;8239;48.594;8.598;2023-07-31T01:36:04;10.50;99.90
16263;DHT22;8239;48.594;8.598;2023-07-31T01:38:32;10.50;99.90
16263;DHT22;8239;48.594;8.598;2023-07-31T01:41:00;10.60;99.90
16263;DHT22;8239;48.594;8.598;2023-07-31T01:43:27;10.50;99.90
16263;DHT22;8239;48.594;8.598;2023-07-31T01:45:54;10.50;99.90
16263;DHT22;8239;48.594;8.598;2023-07-31T01:48:21;10.60;99.90
16263;DHT22;8239;48.594;8.598;2023-07-31T01:50:48;10.60;99.90
16263;DHT22;8239;48.594;8.598;2023-07-31T01:53:15;10.60;99.90
16263;DHT22;8239;48.594;8.598;2023-07-31T01:55:42;10.60;99.90
16263;DHT22;8239;48.594;8.598;2023-07-31T01:58:10;10.60;99.90
16263;DHT22;8239;48.594;8.598;2023-07-31T02:00:37;10.70;99.90
16263;DHT22;8239;48.594;8.598;2023-07-31T02:03:04;10.70;99.90
16263;DHT22;8239;48.594;8.598;2023-07-31T02:05:31;10.70;99.90
16263;DHT22;8239;48.594;8.598;2023-07-31T02:07:58;10.70;99.90
16263;DHT22;8239;48.594;8.598;2023-07-31T02:10:25;10.70;99.90
16263;DHT22;8239;48.594;8.598;2023-07-31T02:12:52;10.60;99.90
16263;DHT22;8239;48.594;8.598;2023-07-31T02:15:20;10.60;99.90
16263;DHT22;8239;48.594;8.598;2023-07-31T02:17:47;10.50;99.90
16263;DHT22;8239;48.594;8.598;2023-07-31T02:20:14;10.50;99.90
16263;DHT22;8239;48.594;8.598;2023-07-31T02:22:41;10.40;99.90
16263;DHT22;8239;48.594;8.598;2023-07-31T02:25:08;10.40;99.90
16263;DHT22;8239;48.594;8.598;2023-07-31T02:27:35;10.30;99.90
16263;DHT22;8239;48.594;8.598;2023-07-31T02:30:02;10.30;99.90
16263;DHT22;8239;48.594;8.598;2023-07-31T02:32:30;10.30;99.90
16263;DHT22;8239;48.594;8.598;2023-07-31T02:34:57;10.20;99.90
16263;DHT22;8239;48.594;8.598;2023-07-31T02:37:25;10.20;99.90
16263;DHT22;8239;48.594;8.598;2023-07-31T02:39:54;10.10;99.90
16263;DHT22;8239;48.594;8.598;2023-07-31T02:42:21;10.10;99.90
16263;DHT22;8239;48.594;8.598;2023-07-31T02:44:47;10.10;99.90
16263;DHT22;8239;48.594;8.598;2023-07-31T02:47:16;10.10;99.90
16263;DHT22;8239;48.594;8.598;2023-07-31T02:49:45;10.10;99.90
16263;DHT22;8239;48.594;8.598;2023-07-31T02:52:11;10.10;99.90
16263;DHT22;8239;48.594;8.598;2023-07-31T02:54:38;10.10;99.90
16263;DHT22;8239;48.594;8.598;2023-07-31T02:57:05;10.20;99.90
16263;DHT22;8239;48.594;8.598;2023-07-31T02:59:32;10.20;99.90
16263;DHT22;8239;48.594;8.598;2023-07-31T03:01:59;10.20;99.90
16263;DHT22;8239;48.594;8.598;2023-07-31T03:04:26;10.30;99.90
16263;DHT22;8239;48.594;8.598;2023-07-31T03:06:54;10.30;99.90
16263;DHT22;8239;48.594;8.598;2023-07-31T03:09:21;10.40;99.90
16263;DHT22;8239;48.594;8.598;2023-07-31T03:11:48;10.50;99.90
16263;DHT22;8239;48.594;8.598;2023-07-31T03:14:15;10.50;99.90
16263;DHT22;8239;48.594;8.598;2023-07-31T03:16:42;10.60;99.90
16263;DHT22;8239;48.594;8.598;2023-07-31T03:19:09;10.60;99.90
16263;DHT22;8239;48.594;8.598;2023-07-31T03:21:36;10.70;99.90
16263;DHT22;8239;48.594;8.598;2023-07-31T03:24:04;10.80;99.90
16263;DHT22;8239;48.594;8.598;2023-07-31T03:26:31;10.80;99.90
16263;DHT22;8239;48.594;8.598;2023-07-31T03:28:58;10.80;99.90
16263;DHT22;8239;48.594;8.598;2023-07-31T03:31:25;10.90;99.90
16263;DHT22;8239;48.594;8.598;2023-07-31T03:33:52;10.90;99.90
16263;DHT22;8239;48.594;8.598;2023-07-31T03:36:19;11.00;99.90
16263;DHT22;8239;48.594;8.598;2023-07-31T03:38:46;11.00;99.90
16263;DHT22;8239;48.594;8.598;2023-07-31T03:41:14;11.00;99.90
16263;DHT22;8239;48.594;8.598;2023-07-31T03:43:41;11.10;99.90
16263;DHT22;8239;48.594;8.598;2023-07-31T03:46:08;11.10;99.90
16263;DHT22;8239;48.594;8.598;2023-07-31T03:48:35;11.10;99.90
16263;DHT22;8239;48.594;8.598;2023-07-31T03:51:02;11.10;99.90
16263;DHT22;8239;48.594;8.598;2023-07-31T03:53:29;11.10;99.90
16263;DHT22;8239;48.594;8.598;2023-07-31T03:55:56;11.20;99.90
16263;DHT22;8239;48.594;8.598;2023-07-31T03:58:24;11.20;99.90
16263;DHT22;8239;48.594;8.598;2023-07-31T04:00:51;11.20;99.90
16263;DHT22;8239;48.594;8.598;2023-07-31T04:03:18;11.20;99.90
16263;DHT22;8239;48.594;8.598;2023-07-31T04:05:45;11.20;99.90
16263;DHT22;8239;48.594;8.598;2023-07-31T04:08:12;11.20;99.90
16263;DHT22;8239;48.594;8.598;2023-07-31T04:10:39;11.20;99.90
16263;DHT22;8239;48.594;8.598;2023-07-31T04:13:05;11.20;99.90
16263;DHT22;8239;48.594;8.598;2023-07-31T04:15:34;11.30;99.90
16263;DHT22;8239;48.594;8.598;2023-07-31T04:18:01;11.30;99.90
16263;DHT22;8239;48.594;8.598;2023-07-31T04:20:27;11.30;99.90
16263;DHT22;8239;48.594;8.598;2023-07-31T04:22:54;11.40;99.90
16263;DHT22;8239;48.594;8.598;2023-07-31T04:25:21;11.40;99.90
16263;DHT22;8239;48.594;8.598;2023-07-31T04:27:48;11.50;99.90
16263;DHT22;8239;48.594;8.598;2023-07-31T04:30:15;11.50;99.90
16263;DHT22;8239;48.594;8.598;2023-07-31T04:32:43;11.50;99.90
16263;DHT22;8239;48.594;8.598;2023-07-31T04:35:10;11.60;99.90
16263;DHT22;8239;48.594;8.598;2023-07-31T04:37:38;11.70;99.90
16263;DHT22;8239;48.594;8.598;2023-07-31T04:40:06;11.70;99.90
16263;DHT22;8239;48.594;8.598;2023-07-31T04:42:33;11.80;99.90
16263;DHT22;8239;48.594;8.598;2023-07-31T04:45:01;11.90;99.90
16263;DHT22;8239;48.594;8.598;2023-07-31T04:47:27;11.90;99.90
16263;DHT22;8239;48.594;8.598;2023-07-31T04:49:56;12.00;99.90
16263;DHT22;8239;48.594;8.598;2023-07-31T04:52:23;12.00;99.90
16263;DHT22;8239;48.594;8.598;2023-07-31T04:54:50;12.00;99.90
16263;DHT22;8239;48.594;8.598;2023-07-31T04:57:17;12.10;99.90
16263;DHT22;8239;48.594;8.598;2023-07-31T04:59:43;12.10;99.90
16263;DHT22;8239;48.594;8.598;2023-07-31T05:02:12;12.10;99.90
16263;DHT22;8239;48.594;8.598;2023-07-31T05:04:39;12.20;99.90
16263;DHT22;8239;48.594;8.598;2023-07-31T05:07:08;12.20;99.90
16263;DHT22;8239;48.594;8.598;2023-07-31T05:09:35;12.20;99.90
16263;DHT22;8239;48.594;8.598;2023-07-31T05:12:03;12.20;99.90
16263;DHT22;8239;48.594;8.598;2023-07-31T05:14:30;12.20;99.90
16263;DHT22;8239;48.594;8.598;2023-07-31T05:16:57;12.30;99.90
16263;DHT22;8239;48.594;8.598;2023-07-31T05:19:24;12.30;99.90
16263;DHT22;8239;48.594;8.598;2023-07-31T05:21:51;12.40;99.90
16263;DHT22;8239;48.594;8.598;2023-07-31T05:24:19;12.50;99.90
16263;DHT22;8239;48.594;8.598;2023-07-31T05:26:46;12.60;99.90
16263;DHT22;8239;48.594;8.598;2023-07-31T05:29:13;12.70;99.90
16263;DHT22;8239;48.594;8.598;2023-07-31T05:31:40;12.80;99.90
16263;DHT22;8239;48.594;8.598;2023-07-31T05:34:07;12.90;99.90
16263;DHT22;8239;48.594;8.598;2023-07-31T05:36:34;12.90;99.90
16263;DHT22;8239;48.594;8.598;2023-07-31T05:39:01;13.00;99.90
16263;DHT22;8239;48.594;8.598;2023-07-31T05:41:33;13.00;99.90
16263;DHT22;8239;48.594;8.598;2023-07-31T05:44:00;13.10;99.90
16263;DHT22;8239;48.594;8.598;2023-07-31T05:46:27;13.20;99.90
16263;DHT22;8239;48.594;8.598;2023-07-31T05:48:54;13.20;99.90
16263;DHT22;8239;48.594;8.598;2023-07-31T05:51:21;13.30;99.90
16263;DHT22;8239;48.594;8.598;2023-07-31T05:53:48;13.30;99.90
16263;DHT22;8239;48.594;8.598;2023-07-31T05:56:15;13.40;99.90
16263;DHT22;8239;48.594;8.598;2023-07-31T05:58:43;13.60;99.90
16263;DHT22;8239;48.594;8.598;2023-07-31T06:01:10;13.80;99.90
16263;DHT22;8239;48.594;8.598;2023-07-31T06:03:37;14.00;99.90
16263;DHT22;8239;48.594;8.598;2023-07-31T06:06:04;14.20;99.90
16263;DHT22;8239;48.594;8.598;2023-07-31T06:08:31;14.50;99.90
16263;DHT22;8239;48.594;8.598;2023-07-31T06:10:59;14.90;99.90
16263;DHT22;8239;48.594;8.598;2023-07-31T06:13:25;15.20;99.90
16263;DHT22;8239;48.594;8.598;2023-07-31T06:15:54;15.50;99.90
16263;DHT22;8239;48.594;8.598;2023-07-31T06:18:21;15.80;99.90
16263;DHT22;8239;48.594;8.598;2023-07-31T06:20:48;16.10;99.90
16263;DHT22;8239;48.594;8.598;2023-07-31T06:23:19;16.40;99.90
16263;DHT22;8239;48.594;8.598;2023-07-31T06:25:46;16.60;99.90
16263;DHT22;8239;48.594;8.598;2023-07-31T06:28:13;16.80;99.90
16263;DHT22;8239;48.594;8.598;2023-07-31T06:30:40;16.90;99.90
16263;DHT22;8239;48.594;8.598;2023-07-31T06:33:08;16.80;99.90
16263;DHT22;8239;48.594;8.598;2023-07-31T06:35:35;16.80;99.90
16263;DHT22;8239;48.594;8.598;2023-07-31T06:38:02;16.70;99.90
16263;DHT22;8239;48.594;8.598;2023-07-31T06:40:31;16.60;99.90
16263;DHT22;8239;48.594;8.598;2023-07-31T06:42:58;16.50;99.90
16263;DHT22;8239;48.594;8.598;2023-07-31T06:45:24;16.40;99.90
16263;DHT22;8239;48.594;8.598;2023-07-31T06:47:51;16.20;99.90
16263;DHT22;8239;48.594;8.598;2023-07-31T06:50:20;16.20;99.90
16263;DHT22;8239;48.594;8.598;2023-07-31T06:52:47;16.10;99.90
16263;DHT22;8239;48.594;8.598;2023-07-31T06:55:17;16.10;99.90
16263;DHT22;8239;48.594;8.598;2023-07-31T06:57:45;16.10;99.90
16263;DHT22;8239;48.594;8.598;2023-07-31T07:00:13;16.20;99.90
16263;DHT22;8239;48.594;8.598;2023-07-31T07:02:40;16.20;99.90
16263;DHT22;8239;48.594;8.598;2023-07-31T07:05:07;16.30;99.90
16263;DHT22;8239;48.594;8.598;2023-07-31T07:07:36;16.30;99.90
16263;DHT22;8239;48.594;8.598;2023-07-31T07:10:04;16.40;99.90
16263;DHT22;8239;48.594;8.598;2023-07-31T07:12:32;16.50;99.90
16263;DHT22;8239;48.594;8.598;2023-07-31T07:14:59;16.60;99.90
16263;DHT22;8239;48.594;8.598;2023-07-31T07:17:28;16.60;99.90
16263;DHT22;8239;48.594;8.598;2023-07-31T07:19:56;16.70;99.90
16263;DHT22;8239;48.594;8.598;2023-07-31T07:22:23;16.80;99.90
16263;DHT22;8239;48.594;8.598;2023-07-31T07:24:52;17.00;99.90
16263;DHT22;8239;48.594;8.598;2023-07-31T07:27:19;17.30;99.90
16263;DHT22;8239;48.594;8.598;2023-07-31T07:29:46;17.60;99.90
16263;DHT22;8239;48.594;8.598;2023-07-31T07:32:13;17.90;98.60
16263;DHT22;8239;48.594;8.598;2023-07-31T07:34:40;18.30;98.60
16263;DHT22;8239;48.594;8.598;2023-07-31T07:37:07;18.60;97.40
16263;DHT22;8239;48.594;8.598;2023-07-31T07:39:34;19.10;96.30
16263;DHT22;8239;48.594;8.598;2023-07-31T07:42:03;19.80;94.00
16263;DHT22;8239;48.594;8.598;2023-07-31T07:44:30;20.60;93.40
16263;DHT22;8239;48.594;8.598;2023-07-31T07:46:57;21.50;89.70
16263;DHT22;8239;48.594;8.598;2023-07-31T07:49:24;22.70;88.30
16263;DHT22;8239;48.594;8.598;2023-07-31T07:51:51;24.00;81.20
16263;DHT22;8239;48.594;8.598;2023-07-31T07:54:18;24.80;69.30
16263;DHT22;8239;48.594;8.598;2023-07-31T07:56:46;25.40;66.90
16263;DHT22;8239;48.594;8.598;2023-07-31T07:59:15;25.70;63.10
16263;DHT22;8239;48.594;8.598;2023-07-31T08:01:41;25.90;61.60
16263;DHT22;8239;48.594;8.598;2023-07-31T08:04:08;26.50;60.30
16263;DHT22;8239;48.594;8.598;2023-07-31T08:06:35;26.60;56.60
16263;DHT22;8239;48.594;8.598;2023-07-31T08:09:02;26.40;56.70
16263;DHT22;8239;48.594;8.598;2023-07-31T08:11:32;26.00;55.20
16263;DHT22;8239;48.594;8.598;2023-07-31T08:13:59;25.60;56.50
16263;DHT22;8239;48.594;8.598;2023-07-31T08:16:27;25.10;56.50
16263;DHT22;8239;48.594;8.598;2023-07-31T08:18:54;24.50;58.00
16263;DHT22;8239;48.594;8.598;2023-07-31T08:21:21;24.50;59.60
16263;DHT22;8239;48.594;8.598;2023-07-31T08:23:48;24.70;58.70
16263;DHT22;8239;48.594;8.598;2023-07-31T08:26:16;25.00;58.90
16263;DHT22;8239;48.594;8.598;2023-07-31T08:28:43;25.20;58.40
16263;DHT22;8239;48.594;8.598;2023-07-31T08:31:10;25.60;57.40
16263;DHT22;8239;48.594;8.598;2023-07-31T08:33:38;25.80;57.00
16263;DHT22;8239;48.594;8.598;2023-07-31T08:36:06;25.90;57.10
16263;DHT22;8239;48.594;8.598;2023-07-31T08:38:33;26.50;55.40
16263;DHT22;8239;48.594;8.598;2023-07-31T08:41:00;27.10;55.00
16263;DHT22;8239;48.594;8.598;2023-07-31T08:43:27;27.60;53.40
16263;DHT22;8239;48.594;8.598;2023-07-31T08:45:54;27.70;52.00
16263;DHT22;8239;48.594;8.598;2023-07-31T08:48:23;27.30;51.40
16263;DHT22;8239;48.594;8.598;2023-07-31T08:50:51;26.90;52.20
16263;DHT22;8239;48.594;8.598;2023-07-31T08:53:19;26.80;53.40
16263;DHT22;8239;48.594;8.598;2023-07-31T08:55:46;26.90;54.00
16263;DHT22;8239;48.594;8.598;2023-07-31T08:58:15;27.30;52.80
16263;DHT22;8239;48.594;8.598;2023-07-31T09:00:46;27.50;51.50
16263;DHT22;8239;48.594;8.598;2023-07-31T09:03:14;27.70;51.70
16263;DHT22;8239;48.594;8.598;2023-07-31T09:05:43;27.50;51.50
16263;DHT22;8239;48.594;8.598;2023-07-31T09:08:14;26.90;51.50
16263;DHT22;8239;48.594;8.598;2023-07-31T09:10:42;26.40;52.10
16263;DHT22;8239;48.594;8.598;2023-07-31T09:13:11;25.70;53.30
16263;DHT22;8239;48.594;8.598;2023-07-31T09:15:39;25.30;54.70
16263;DHT22;8239;48.594;8.598;2023-07-31T09:18:08;25.10;55.40
16263;DHT22;8239;48.594;8.598;2023-07-31T09:20:36;24.80;55.60
16263;DHT22;8239;48.594;8.598;2023-07-31T09:23:07;24.30;56.40
16263;DHT22;8239;48.594;8.598;2023-07-31T09:25:37;24.00;57.60
16263;DHT22;8239;48.594;8.598;2023-07-31T09:28:06;23.90;58.50
16263;DHT22;8239;48.594;8.598;2023-07-31T09:30:46;23.70;58.20
16263;DHT22;8239;48.594;8.598;2023-07-31T09:33:13;23.60;59.10
16263;DHT22;8239;48.594;8.598;2023-07-31T09:35:41;23.70;59.20
16263;DHT22;8239;48.594;8.598;2023-07-31T09:38:09;23.80;58.80
16263;DHT22;8239;48.594;8.598;2023-07-31T09:40:39;24.30;59.60
16263;DHT22;8239;48.594;8.598;2023-07-31T09:43:07;25.10;57.30
16263;DHT22;8239;48.594;8.598;2023-07-31T09:45:37;25.80;55.10
16263;DHT22;8239;48.594;8.598;2023-07-31T09:48:07;26.30;54.70
16263;DHT22;8239;48.594;8.598;2023-07-31T09:50:36;27.10;52.80
16263;DHT22;8239;48.594;8.598;2023-07-31T09:53:03;27.60;51.30
16263;DHT22;8239;48.594;8.598;2023-07-31T09:55:31;27.20;49.50
16263;DHT22;8239;48.594;8.598;2023-07-31T09:58:04;27.10;50.80
16263;DHT22;8239;48.594;8.598;2023-07-31T10:00:31;27.10;51.20
16263;DHT22;8239;48.594;8.598;2023-07-31T10:03:00;27.20;50.40
16263;DHT22;8239;48.594;8.598;2023-07-31T10:05:31;27.40;50.70
16263;DHT22;8239;48.594;8.598;2023-07-31T10:07:58;27.50;50.00
16263;DHT22;8239;48.594;8.598;2023-07-31T10:10:26;27.30;50.20
16263;DHT22;8239;48.594;8.598;2023-07-31T10:12:54;27.30;51.30
16263;DHT22;8239;48.594;8.598;2023-07-31T10:15:24;27.30;51.00
16263;DHT22;8239;48.594;8.598;2023-07-31T10:17:52;27.20;49.90
16263;DHT22;8239;48.594;8.598;2023-07-31T10:20:20;26.70;50.50
16263;DHT22;8239;48.594;8.598;2023-07-31T10:22:48;26.30;51.60
16263;DHT22;8239;48.594;8.598;2023-07-31T10:25:16;26.10;52.80
16263;DHT22;8239;48.594;8.598;2023-07-31T10:27:42;26.10;53.70
16263;DHT22;8239;48.594;8.598;2023-07-31T10:30:12;26.60;54.30
16263;DHT22;8239;48.594;8.598;2023-07-31T10:32:41;27.10;51.50
16263;DHT22;8239;48.594;8.598;2023-07-31T10:35:10;27.30;50.30
16263;DHT22;8239;48.594;8.598;2023-07-31T10:37:39;27.20;49.70
16263;DHT22;8239;48.594;8.598;2023-07-31T10:40:10;26.80;50.10
16263;DHT22;8239;48.594;8.598;2023-07-31T10:42:45;26.40;51.40
16263;DHT22;8239;48.594;8.598;2023-07-31T10:45:14;26.00;51.80
16263;DHT22;8239;48.594;8.598;2023-07-31T10:47:58;25.40;52.90
16263;DHT22;8239;48.594;8.598;2023-07-31T10:50:26;24.80;53.90
16263;DHT22;8239;48.594;8.598;2023-07-31T10:52:54;24.30;54.80
16263;DHT22;8239;48.594;8.598;2023-07-31T10:55:27;24.00;56.10
16263;DHT22;8239;48.594;8.598;2023-07-31T10:57:55;23.90;57.40
16263;DHT22;8239;48.594;8.598;2023-07-31T11:00:25;23.90;58.20
16263;DHT22;8239;48.594;8.598;2023-07-31T11:03:01;23.80;57.10
16263;DHT22;8239;48.594;8.598;2023-07-31T11:05:49;23.60;57.20
16263;DHT22;8239;48.594;8.598;2023-07-31T11:08:18;23.40;57.80
16263;DHT22;8239;48.594;8.598;2023-07-31T11:10:47;23.30;58.90
16263;DHT22;8239;48.594;8.598;2023-07-31T11:13:15;23.40;59.00
16263;DHT22;8239;48.594;8.598;2023-07-31T11:15:42;23.50;59.00
16263;DHT22;8239;48.594;8.598;2023-07-31T11:18:10;23.60;59.10
16263;DHT22;8239;48.594;8.598;2023-07-31T11:20:38;23.90;58.40
16263;DHT22;8239;48.594;8.598;2023-07-31T11:23:09;24.00;58.40
16263;DHT22;8239;48.594;8.598;2023-07-31T11:25:37;24.00;58.70
16263;DHT22;8239;48.594;8.598;2023-07-31T11:28:06;23.90;59.40
16263;DHT22;8239;48.594;8.598;2023-07-31T11:30:34;23.80;59.50
16263;DHT22;8239;48.594;8.598;2023-07-31T11:33:02;23.60;59.40
16263;DHT22;8239;48.594;8.598;2023-07-31T11:35:32;23.10;60.20
16263;DHT22;8239;48.594;8.598;2023-07-31T11:38:00;22.80;61.90
16263;DHT22;8239;48.594;8.598;2023-07-31T11:40:27;22.40;62.70
16263;DHT22;8239;48.594;8.598;2023-07-31T11:42:56;22.00;65.50
16263;DHT22;8239;48.594;8.598;2023-07-31T11:45:25;21.70;66.30
16263;DHT22;8239;48.594;8.598;2023-07-31T11:47:55;21.60;66.30
16263;DHT22;8239;48.594;8.598;2023-07-31T11:50:23;21.40;67.20
16263;DHT22;8239;48.594;8.598;2023-07-31T11:52:56;21.40;68.10
16263;DHT22;8239;48.594;8.598;2023-07-31T11:55:24;21.30;68.50
16263;DHT22;8239;48.594;8.598;2023-07-31T11:57:53;21.30;68.50
16263;DHT22;8239;48.594;8.598;2023-07-31T12:00:21;21.30;68.20
16263;DHT22;8239;48.594;8.598;2023-07-31T12:02:49;21.40;69.00
16263;DHT22;8239;48.594;8.598;2023-07-31T12:05:17;21.60;69.30
16263;DHT22;8239;48.594;8.598;2023-07-31T12:07:49;21.90;69.60
16263;DHT22;8239;48.594;8.598;2023-07-31T12:10:25;22.40;69.00
16263;DHT22;8239;48.594;8.598;2023-07-31T12:13:06;22.90;67.70
16263;DHT22;8239;48.594;8.598;2023-07-31T12:15:38;23.20;66.20
16263;DHT22;8239;48.594;8.598;2023-07-31T12:18:07;23.60;65.70
16263;DHT22;8239;48.594;8.598;2023-07-31T12:20:34;24.00;64.10
16263;DHT22;8239;48.594;8.598;2023-07-31T12:23:02;25.00;64.20
16263;DHT22;8239;48.594;8.598;2023-07-31T12:25:32;25.90;60.70
16263;DHT22;8239;48.594;8.598;2023-07-31T12:28:04;26.60;58.60
16263;DHT22;8239;48.594;8.598;2023-07-31T12:30:33;27.30;57.40
16263;DHT22;8239;48.594;8.598;2023-07-31T12:33:05;28.00;55.90
16263;DHT22;8239;48.594;8.598;2023-07-31T12:35:36;28.40;53.60
16263;DHT22;8239;48.594;8.598;2023-07-31T12:38:04;28.90;53.00
16263;DHT22;8239;48.594;8.598;2023-07-31T12:40:32;29.10;52.20
16263;DHT22;8239;48.594;8.598;2023-07-31T12:43:01;29.30;50.20
16263;DHT22;8239;48.594;8.598;2023-07-31T12:45:29;29.30;50.50
16263;DHT22;8239;48.594;8.598;2023-07-31T12:47:57;29.30;49.80
16263;DHT22;8239;48.594;8.598;2023-07-31T12:50:24;29.40;49.40
16263;DHT22;8239;48.594;8.598;2023-07-31T12:52:51;29.70;49.30
16263;DHT22;8239;48.594;8.598;2023-07-31T12:55:18;30.20;49.10
16263;DHT22;8239;48.594;8.598;2023-07-31T12:57:46;30.30;46.00
16263;DHT22;8239;48.594;8.598;2023-07-31T13:00:14;30.30;46.80
16263;DHT22;8239;48.594;8.598;2023-07-31T13:02:41;29.90;46.00
16263;DHT22;8239;48.594;8.598;2023-07-31T13:05:08;29.50;46.80
16263;DHT22;8239;48.594;8.598;2023-07-31T13:07:35;29.00;46.60
16263;DHT22;8239;48.594;8.598;2023-07-31T13:10:02;28.40;48.40
16263;DHT22;8239;48.594;8.598;2023-07-31T13:12:29;28.10;49.50
16263;DHT22;8239;48.594;8.598;2023-07-31T13:14:58;27.90;49.50
16263;DHT22;8239;48.594;8.598;2023-07-31T13:17:25;27.90;49.90
16263;DHT22;8239;48.594;8.598;2023-07-31T13:19:52;27.90;50.00
16263;DHT22;8239;48.594;8.598;2023-07-31T13:22:19;27.80;49.80
16263;DHT22;8239;48.594;8.598;2023-07-31T13:24:46;27.50;50.00
16263;DHT22;8239;48.594;8.598;2023-07-31T13:27:13;27.30;50.50
16263;DHT22;8239;48.594;8.598;2023-07-31T13:29:42;27.00;50.40
16263;DHT22;8239;48.594;8.598;2023-07-31T13:32:11;26.90;51.60
16263;DHT22;8239;48.594;8.598;2023-07-31T13:34:38;26.80;51.30
16263;DHT22;8239;48.594;8.598;2023-07-31T13:37:05;26.90;51.90
16263;DHT22;8239;48.594;8.598;2023-07-31T13:39:32;27.00;52.20
16263;DHT22;8239;48.594;8.598;2023-07-31T13:42:00;27.10;51.70
16263;DHT22;8239;48.594;8.598;2023-07-31T13:44:27;27.30;51.30
16263;DHT22;8239;48.594;8.598;2023-07-31T13:46:53;27.50;52.40
16263;DHT22;8239;48.594;8.598;2023-07-31T13:49:22;27.80;51.60
16263;DHT22;8239;48.594;8.598;2023-07-31T13:51:50;28.20;51.20
16263;DHT22;8239;48.594;8.598;2023-07-31T13:54:17;28.40;49.80
16263;DHT22;8239;48.594;8.598;2023-07-31T13:56:44;28.60;49.70
16263;DHT22;8239;48.594;8.598;2023-07-31T13:59:11;28.70;49.90
16263;DHT22;8239;48.594;8.598;2023-07-31T14:01:39;28.70;49.60
16263;DHT22;8239;48.594;8.598;2023-07-31T14:04:06;28.40;50.00
16263;DHT22;8239;48.594;8.598;2023-07-31T14:06:34;28.10;50.30
16263;DHT22;8239;48.594;8.598;2023-07-31T14:09:02;27.70;50.70
16263;DHT22;8239;48.594;8.598;2023-07-31T14:11:30;27.20;50.90
16263;DHT22;8239;48.594;8.598;2023-07-31T14:13:58;26.80;52.00
16263;DHT22;8239;48.594;8.598;2023-07-31T14:16:25;26.50;53.00
16263;DHT22;8239;48.594;8.598;2023-07-31T14:18:52;26.30;53.40
16263;DHT22;8239;48.594;8.598;2023-07-31T14:21:19;26.00;54.20
16263;DHT22;8239;48.594;8.598;2023-07-31T14:23:47;25.90;54.60
16263;DHT22;8239;48.594;8.598;2023-07-31T14:26:14;25.70;54.50
16263;DHT22;8239;48.594;8.598;2023-07-31T14:28:42;25.60;54.90
16263;DHT22;8239;48.594;8.598;2023-07-31T14:31:09;25.50;55.60
16263;DHT22;8239;48.594;8.598;2023-07-31T14:33:36;25.40;55.60
16263;DHT22;8239;48.594;8.598;2023-07-31T14:36:03;25.30;55.70
16263;DHT22;8239;48.594;8.598;2023-07-31T14:38:30;25.20;55.70
16263;DHT22;8239;48.594;8.598;2023-07-31T14:40:58;25.00;56.00
16263;DHT22;8239;48.594;8.598;2023-07-31T14:43:25;24.80;56.60
16263;DHT22;8239;48.594;8.598;2023-07-31T14:45:52;24.50;57.10
16263;DHT22;8239;48.594;8.598;2023-07-31T14:48:21;24.20;56.70
16263;DHT22;8239;48.594;8.598;2023-07-31T14:50:48;23.80;57.50
16263;DHT22;8239;48.594;8.598;2023-07-31T14:53:15;23.50;58.50
16263;DHT22;8239;48.594;8.598;2023-07-31T14:55:42;23.20;59.00
16263;DHT22;8239;48.594;8.598;2023-07-31T14:58:10;23.00;59.50
16263;DHT22;8239;48.594;8.598;2023-07-31T15:00:39;22.80;59.90
16263;DHT22;8239;48.594;8.598;2023-07-31T15:03:06;22.60;60.30
16263;DHT22;8239;48.594;8.598;2023-07-31T15:05:33;22.60;61.70
16263;DHT22;8239;48.594;8.598;2023-07-31T15:08:00;22.60;62.30
16263;DHT22;8239;48.594;8.598;2023-07-31T15:10:27;22.60;61.60
16263;DHT22;8239;48.594;8.598;2023-07-31T15:12:54;22.60;62.00
16263;DHT22;8239;48.594;8.598;2023-07-31T15:15:22;22.60;62.10
16263;DHT22;8239;48.594;8.598;2023-07-31T15:17:49;22.70;62.60
16263;DHT22;8239;48.594;8.598;2023-07-31T15:20:16;22.80;62.50
16263;DHT22;8239;48.594;8.598;2023-07-31T15:22:43;22.80;61.70
16263;DHT22;8239;48.594;8.598;2023-07-31T15:25:10;22.70;62.10
16263;DHT22;8239;48.594;8.598;2023-07-31T15:27:37;22.70;62.20
16263;DHT22;8239;48.594;8.598;2023-07-31T15:30:05;22.70;62.70
16263;DHT22;8239;48.594;8.598;2023-07-31T15:32:33;22.70;63.00
16263;DHT22;8239;48.594;8.598;2023-07-31T15:35:00;22.70;63.00
16263;DHT22;8239;48.594;8.598;2023-07-31T15:37:27;22.60;63.00
16263;DHT22;8239;48.594;8.598;2023-07-31T15:39:54;22.50;63.30
16263;DHT22;8239;48.594;8.598;2023-07-31T15:42:21;22.50;63.50
16263;DHT22;8239;48.594;8.598;2023-07-31T15:44:48;22.40;63.70
16263;DHT22;8239;48.594;8.598;2023-07-31T15:47:15;22.40;63.60
16263;DHT22;8239;48.594;8.598;2023-07-31T15:49:44;22.40;64.10